sensor_id;sensor_type;location;lat;lon;timestamp;P1;durP1;ratioP1;P2;durP2;ratioP2
56285;SDS011;42191;47.562;9.686;2023-04-12T00:01:35;37.95;;;35.65;;
56285;SDS011;42191;47.562;9.686;2023-04-12T00:04:01;37.05;;;34.75;;
56285;SDS011;42191;47.562;9.686;2023-04-12T00:06:28;35.97;;;33.78;;
56285;SDS011;42191;47.562;9.686;2023-04-12T00:08:58;37.15;;;34.85;;
56285;SDS011;42191;47.562;9.686;2023-04-12T00:11:25;36.72;;;34.53;;
56285;SDS011;42191;47.562;9.686;2023-04-12T00:13:54;36.95;;;34.65;;
56285;SDS011;42191;47.562;9.686;2023-04-12T00:16:20;37.45;;;35.13;;
56285;SDS011;42191;47.562;9.686;2023-04-12T00:18:46;37.65;;;35.35;;
56285;SDS011;42191;47.562;9.686;2023-04-12T00:21:12;38.58;;;36.17;;
56285;SDS011;42191;47.562;9.686;2023-04-12T00:23:43;38.25;;;35.95;;
56285;SDS011;42191;47.562;9.686;2023-04-12T00:26:13;36.33;;;34.13;;
56285;SDS011;42191;47.562;9.686;2023-04-12T00:28:40;38.60;;;36.25;;
56285;SDS011;42191;47.562;9.686;2023-04-12T00:31:07;38.38;;;36.08;;
56285;SDS011;42191;47.562;9.686;2023-04-12T00:33:33;38.40;;;36.00;;
56285;SDS011;42191;47.562;9.686;2023-04-12T00:36:00;38.90;;;36.50;;
56285;SDS011;42191;47.562;9.686;2023-04-12T00:38:26;36.88;;;34.58;;
56285;SDS011;42191;47.562;9.686;2023-04-12T00:40:52;37.17;;;34.97;;
56285;SDS011;42191;47.562;9.686;2023-04-12T00:43:18;38.25;;;35.67;;
56285;SDS011;42191;47.562;9.686;2023-04-12T00:45:47;38.85;;;36.45;;
56285;SDS011;42191;47.562;9.686;2023-04-12T00:48:14;37.33;;;35.03;;
56285;SDS011;42191;47.562;9.686;2023-04-12T00:50:41;38.30;;;35.80;;
56285;SDS011;42191;47.562;9.686;2023-04-12T00:53:10;36.70;;;34.40;;
56285;SDS011;42191;47.562;9.686;2023-04-12T00:55:39;38.40;;;36.10;;
56285;SDS011;42191;47.562;9.686;2023-04-12T00:58:07;38.00;;;35.70;;
56285;SDS011;42191;47.562;9.686;2023-04-12T01:00:33;37.28;;;34.97;;
56285;SDS011;42191;47.562;9.686;2023-04-12T01:02:59;37.05;;;34.85;;
56285;SDS011;42191;47.562;9.686;2023-04-12T01:05:26;37.50;;;35.20;;
56285;SDS011;42191;47.562;9.686;2023-04-12T01:08:14;37.15;;;34.85;;
56285;SDS011;42191;47.562;9.686;2023-04-12T01:13:31;34.75;;;32.67;;
56285;SDS011;42191;47.562;9.686;2023-04-12T01:16:11;37.42;;;35.13;;
56285;SDS011;42191;47.562;9.686;2023-04-12T01:18:40;35.85;;;33.70;;
56285;SDS011;42191;47.562;9.686;2023-04-12T01:21:14;36.08;;;33.88;;
56285;SDS011;42191;47.562;9.686;2023-04-12T01:23:57;35.05;;;32.95;;
56285;SDS011;42191;47.562;9.686;2023-04-12T01:26:44;37.38;;;35.13;;
56285;SDS011;42191;47.562;9.686;2023-04-12T01:29:13;37.75;;;35.45;;
56285;SDS011;42191;47.562;9.686;2023-04-12T01:31:49;37.08;;;34.88;;
56285;SDS011;42191;47.562;9.686;2023-04-12T01:34:22;37.87;;;35.57;;
56285;SDS011;42191;47.562;9.686;2023-04-12T01:36:52;36.95;;;34.75;;
56285;SDS011;42191;47.562;9.686;2023-04-12T01:39:21;38.47;;;36.17;;
56285;SDS011;42191;47.562;9.686;2023-04-12T01:41:47;36.50;;;34.33;;
56285;SDS011;42191;47.562;9.686;2023-04-12T01:44:14;39.38;;;37.03;;
56285;SDS011;42191;47.562;9.686;2023-04-12T01:46:41;36.85;;;34.58;;
56285;SDS011;42191;47.562;9.686;2023-04-12T01:49:10;37.50;;;35.15;;
56285;SDS011;42191;47.562;9.686;2023-04-12T01:54:26;38.33;;;36.03;;
56285;SDS011;42191;47.562;9.686;2023-04-12T01:56:55;36.83;;;34.50;;
56285;SDS011;42191;47.562;9.686;2023-04-12T01:59:25;36.03;;;33.70;;
56285;SDS011;42191;47.562;9.686;2023-04-12T02:02:13;37.25;;;35.03;;
56285;SDS011;42191;47.562;9.686;2023-04-12T02:04:40;37.20;;;35.00;;
56285;SDS011;42191;47.562;9.686;2023-04-12T02:07:06;38.65;;;36.35;;
56285;SDS011;42191;47.562;9.686;2023-04-12T02:09:36;37.17;;;34.90;;
56285;SDS011;42191;47.562;9.686;2023-04-12T02:12:03;36.80;;;34.63;;
56285;SDS011;42191;47.562;9.686;2023-04-12T02:14:30;36.63;;;34.53;;
56285;SDS011;42191;47.562;9.686;2023-04-12T02:16:56;36.72;;;34.53;;
56285;SDS011;42191;47.562;9.686;2023-04-12T02:19:23;38.95;;;36.65;;
56285;SDS011;42191;47.562;9.686;2023-04-12T02:21:49;37.40;;;35.20;;
56285;SDS011;42191;47.562;9.686;2023-04-12T02:24:16;36.33;;;34.13;;
56285;SDS011;42191;47.562;9.686;2023-04-12T02:26:42;35.88;;;33.67;;
56285;SDS011;42191;47.562;9.686;2023-04-12T02:29:08;35.45;;;33.25;;
56285;SDS011;42191;47.562;9.686;2023-04-12T02:31:35;37.60;;;35.30;;
56285;SDS011;42191;47.562;9.686;2023-04-12T02:34:03;38.85;;;36.45;;
56285;SDS011;42191;47.562;9.686;2023-04-12T02:36:29;39.03;;;36.72;;
56285;SDS011;42191;47.562;9.686;2023-04-12T02:38:55;37.10;;;34.90;;
56285;SDS011;42191;47.562;9.686;2023-04-12T02:41:22;38.63;;;36.33;;
56285;SDS011;42191;47.562;9.686;2023-04-12T02:43:48;37.90;;;35.60;;
56285;SDS011;42191;47.562;9.686;2023-04-12T02:46:17;38.25;;;35.85;;
56285;SDS011;42191;47.562;9.686;2023-04-12T02:48:48;35.53;;;33.40;;
56285;SDS011;42191;47.562;9.686;2023-04-12T02:51:14;37.92;;;35.65;;
56285;SDS011;42191;47.562;9.686;2023-04-12T02:53:40;38.88;;;36.53;;
56285;SDS011;42191;47.562;9.686;2023-04-12T02:56:07;35.45;;;33.35;;
56285;SDS011;42191;47.562;9.686;2023-04-12T02:58:34;38.65;;;36.35;;
56285;SDS011;42191;47.562;9.686;2023-04-12T03:01:00;38.25;;;35.85;;
56285;SDS011;42191;47.562;9.686;2023-04-12T03:03:31;38.85;;;36.45;;
56285;SDS011;42191;47.562;9.686;2023-04-12T03:05:58;39.50;;;37.17;;
56285;SDS011;42191;47.562;9.686;2023-04-12T03:08:24;38.85;;;36.45;;
56285;SDS011;42191;47.562;9.686;2023-04-12T03:10:50;39.08;;;36.67;;
56285;SDS011;42191;47.562;9.686;2023-04-12T03:13:16;38.35;;;36.05;;
56285;SDS011;42191;47.562;9.686;2023-04-12T03:15:42;38.80;;;36.20;;
56285;SDS011;42191;47.562;9.686;2023-04-12T03:18:10;38.50;;;36.10;;
56285;SDS011;42191;47.562;9.686;2023-04-12T03:20:36;37.13;;;34.92;;
56285;SDS011;42191;47.562;9.686;2023-04-12T03:23:07;37.97;;;35.67;;
56285;SDS011;42191;47.562;9.686;2023-04-12T03:25:33;35.65;;;33.53;;
56285;SDS011;42191;47.562;9.686;2023-04-12T03:28:01;38.63;;;36.30;;
56285;SDS011;42191;47.562;9.686;2023-04-12T03:30:27;37.22;;;34.92;;
56285;SDS011;42191;47.562;9.686;2023-04-12T03:32:53;37.55;;;35.25;;
56285;SDS011;42191;47.562;9.686;2023-04-12T03:35:19;37.28;;;34.97;;
56285;SDS011;42191;47.562;9.686;2023-04-12T03:37:46;37.03;;;34.75;;
56285;SDS011;42191;47.562;9.686;2023-04-12T03:40:12;35.97;;;33.88;;
56285;SDS011;42191;47.562;9.686;2023-04-12T03:42:38;36.65;;;34.45;;
56285;SDS011;42191;47.562;9.686;2023-04-12T03:45:04;38.08;;;35.78;;
56285;SDS011;42191;47.562;9.686;2023-04-12T03:47:31;36.70;;;34.47;;
56285;SDS011;42191;47.562;9.686;2023-04-12T03:50:04;37.88;;;35.58;;
56285;SDS011;42191;47.562;9.686;2023-04-12T03:52:31;37.38;;;35.13;;
56285;SDS011;42191;47.562;9.686;2023-04-12T03:54:58;38.17;;;35.92;;
56285;SDS011;42191;47.562;9.686;2023-04-12T03:57:25;38.65;;;36.28;;
56285;SDS011;42191;47.562;9.686;2023-04-12T03:59:51;38.72;;;36.33;;
56285;SDS011;42191;47.562;9.686;2023-04-12T04:02:17;37.70;;;35.30;;
56285;SDS011;42191;47.562;9.686;2023-04-12T04:04:43;38.42;;;36.13;;
56285;SDS011;42191;47.562;9.686;2023-04-12T04:07:09;39.05;;;36.67;;
56285;SDS011;42191;47.562;9.686;2023-04-12T04:09:36;37.92;;;35.63;;
56285;SDS011;42191;47.562;9.686;2023-04-12T04:12:02;39.70;;;37.38;;
56285;SDS011;42191;47.562;9.686;2023-04-12T04:14:28;38.13;;;35.83;;
56285;SDS011;42191;47.562;9.686;2023-04-12T04:16:56;38.53;;;36.22;;
56285;SDS011;42191;47.562;9.686;2023-04-12T04:19:22;37.92;;;35.65;;
56285;SDS011;42191;47.562;9.686;2023-04-12T04:21:48;37.20;;;35.00;;
56285;SDS011;42191;47.562;9.686;2023-04-12T04:24:14;38.97;;;36.67;;
56285;SDS011;42191;47.562;9.686;2023-04-12T04:26:43;37.55;;;35.35;;
56285;SDS011;42191;47.562;9.686;2023-04-12T04:29:09;37.58;;;35.38;;
56285;SDS011;42191;47.562;9.686;2023-04-12T04:31:36;38.75;;;36.45;;
56285;SDS011;42191;47.562;9.686;2023-04-12T04:34:02;37.28;;;35.08;;
56285;SDS011;42191;47.562;9.686;2023-04-12T04:36:31;37.83;;;35.53;;
56285;SDS011;42191;47.562;9.686;2023-04-12T04:38:59;38.20;;;35.92;;
56285;SDS011;42191;47.562;9.686;2023-04-12T04:41:26;38.08;;;35.78;;
56285;SDS011;42191;47.562;9.686;2023-04-12T04:43:52;37.85;;;35.58;;
56285;SDS011;42191;47.562;9.686;2023-04-12T04:46:18;36.42;;;34.22;;
56285;SDS011;42191;47.562;9.686;2023-04-12T04:48:48;39.58;;;37.20;;
56285;SDS011;42191;47.562;9.686;2023-04-12T04:51:15;40.35;;;37.85;;
56285;SDS011;42191;47.562;9.686;2023-04-12T04:53:42;37.85;;;35.58;;
56285;SDS011;42191;47.562;9.686;2023-04-12T04:56:08;39.50;;;37.15;;
56285;SDS011;42191;47.562;9.686;2023-04-12T04:58:35;38.75;;;36.45;;
56285;SDS011;42191;47.562;9.686;2023-04-12T05:01:01;39.22;;;36.88;;
56285;SDS011;42191;47.562;9.686;2023-04-12T05:03:27;36.38;;;34.08;;
56285;SDS011;42191;47.562;9.686;2023-04-12T05:05:54;37.35;;;35.08;;
56285;SDS011;42191;47.562;9.686;2023-04-12T05:08:20;39.25;;;36.85;;
56285;SDS011;42191;47.562;9.686;2023-04-12T05:10:50;37.85;;;35.63;;
56285;SDS011;42191;47.562;9.686;2023-04-12T05:13:17;37.00;;;34.80;;
56285;SDS011;42191;47.562;9.686;2023-04-12T05:15:43;38.72;;;36.42;;
56285;SDS011;42191;47.562;9.686;2023-04-12T05:18:09;37.35;;;35.15;;
56285;SDS011;42191;47.562;9.686;2023-04-12T05:20:39;39.47;;;37.13;;
56285;SDS011;42191;47.562;9.686;2023-04-12T05:23:05;38.45;;;36.15;;
56285;SDS011;42191;47.562;9.686;2023-04-12T05:25:31;37.13;;;34.92;;
56285;SDS011;42191;47.562;9.686;2023-04-12T05:27:58;37.38;;;35.08;;
56285;SDS011;42191;47.562;9.686;2023-04-12T05:30:24;37.22;;;35.03;;
56285;SDS011;42191;47.562;9.686;2023-04-12T05:32:51;37.50;;;35.03;;
56285;SDS011;42191;47.562;9.686;2023-04-12T05:35:17;38.00;;;35.70;;
56285;SDS011;42191;47.562;9.686;2023-04-12T05:37:43;36.15;;;33.83;;
56285;SDS011;42191;47.562;9.686;2023-04-12T05:40:09;37.40;;;35.20;;
56285;SDS011;42191;47.562;9.686;2023-04-12T05:42:35;37.42;;;35.13;;
56285;SDS011;42191;47.562;9.686;2023-04-12T05:45:02;35.65;;;33.45;;
56285;SDS011;42191;47.562;9.686;2023-04-12T05:47:28;37.20;;;35.00;;
56285;SDS011;42191;47.562;9.686;2023-04-12T05:49:54;36.42;;;34.22;;
56285;SDS011;42191;47.562;9.686;2023-04-12T05:52:21;37.45;;;35.15;;
56285;SDS011;42191;47.562;9.686;2023-04-12T05:54:47;35.40;;;33.28;;
56285;SDS011;42191;47.562;9.686;2023-04-12T05:57:13;37.20;;;34.90;;
56285;SDS011;42191;47.562;9.686;2023-04-12T05:59:41;36.90;;;34.70;;
56285;SDS011;42191;47.562;9.686;2023-04-12T06:02:07;37.72;;;35.42;;
56285;SDS011;42191;47.562;9.686;2023-04-12T06:04:34;36.45;;;34.28;;
56285;SDS011;42191;47.562;9.686;2023-04-12T06:07:02;38.95;;;36.53;;
56285;SDS011;42191;47.562;9.686;2023-04-12T06:09:29;36.65;;;34.45;;
56285;SDS011;42191;47.562;9.686;2023-04-12T06:11:56;34.75;;;32.65;;
56285;SDS011;42191;47.562;9.686;2023-04-12T06:14:22;36.20;;;34.00;;
56285;SDS011;42191;47.562;9.686;2023-04-12T06:16:48;36.17;;;33.97;;
56285;SDS011;42191;47.562;9.686;2023-04-12T06:19:14;36.88;;;34.60;;
56285;SDS011;42191;47.562;9.686;2023-04-12T06:21:42;34.97;;;32.88;;
56285;SDS011;42191;47.562;9.686;2023-04-12T06:24:08;38.50;;;36.20;;
56285;SDS011;42191;47.562;9.686;2023-04-12T06:26:34;34.75;;;32.67;;
56285;SDS011;42191;47.562;9.686;2023-04-12T06:29:01;37.22;;;35.03;;
56285;SDS011;42191;47.562;9.686;2023-04-12T06:31:27;36.00;;;33.85;;
56285;SDS011;42191;47.562;9.686;2023-04-12T06:33:53;36.83;;;34.58;;
56285;SDS011;42191;47.562;9.686;2023-04-12T06:36:19;36.67;;;34.45;;
56285;SDS011;42191;47.562;9.686;2023-04-12T06:38:45;39.22;;;36.72;;
56285;SDS011;42191;47.562;9.686;2023-04-12T06:41:12;36.15;;;33.95;;
56285;SDS011;42191;47.562;9.686;2023-04-12T06:43:38;36.80;;;34.50;;
56285;SDS011;42191;47.562;9.686;2023-04-12T06:46:04;37.72;;;35.33;;
56285;SDS011;42191;47.562;9.686;2023-04-12T06:48:32;36.05;;;33.75;;
56285;SDS011;42191;47.562;9.686;2023-04-12T06:50:59;36.75;;;34.55;;
56285;SDS011;42191;47.562;9.686;2023-04-12T06:53:25;37.65;;;35.03;;
56285;SDS011;42191;47.562;9.686;2023-04-12T06:55:51;37.67;;;35.00;;
56285;SDS011;42191;47.562;9.686;2023-04-12T06:58:17;37.60;;;35.33;;
56285;SDS011;42191;47.562;9.686;2023-04-12T07:00:44;35.25;;;33.15;;
56285;SDS011;42191;47.562;9.686;2023-04-12T07:03:10;35.78;;;33.58;;
56285;SDS011;42191;47.562;9.686;2023-04-12T07:05:36;34.83;;;32.72;;
56285;SDS011;42191;47.562;9.686;2023-04-12T07:08:03;36.75;;;34.55;;
56285;SDS011;42191;47.562;9.686;2023-04-12T07:10:29;36.75;;;34.47;;
56285;SDS011;42191;47.562;9.686;2023-04-12T07:12:56;37.13;;;34.92;;
56285;SDS011;42191;47.562;9.686;2023-04-12T07:15:27;37.83;;;35.42;;
56285;SDS011;42191;47.562;9.686;2023-04-12T07:17:53;35.42;;;33.33;;
56285;SDS011;42191;47.562;9.686;2023-04-12T07:20:20;35.47;;;33.38;;
56285;SDS011;42191;47.562;9.686;2023-04-12T07:22:46;36.97;;;34.78;;
56285;SDS011;42191;47.562;9.686;2023-04-12T07:25:12;36.60;;;34.40;;
56285;SDS011;42191;47.562;9.686;2023-04-12T07:27:38;36.40;;;34.10;;
56285;SDS011;42191;47.562;9.686;2023-04-12T07:30:04;35.75;;;33.63;;
56285;SDS011;42191;47.562;9.686;2023-04-12T07:32:31;37.00;;;34.78;;
56285;SDS011;42191;47.562;9.686;2023-04-12T07:34:57;37.42;;;35.22;;
56285;SDS011;42191;47.562;9.686;2023-04-12T07:37:23;36.13;;;33.92;;
56285;SDS011;42191;47.562;9.686;2023-04-12T07:39:49;35.80;;;33.60;;
56285;SDS011;42191;47.562;9.686;2023-04-12T07:42:15;36.10;;;33.83;;
56285;SDS011;42191;47.562;9.686;2023-04-12T07:44:41;34.00;;;31.83;;
56285;SDS011;42191;47.562;9.686;2023-04-12T07:47:07;37.17;;;34.88;;
56285;SDS011;42191;47.562;9.686;2023-04-12T07:49:33;34.33;;;32.22;;
56285;SDS011;42191;47.562;9.686;2023-04-12T07:51:59;36.08;;;33.88;;
56285;SDS011;42191;47.562;9.686;2023-04-12T07:54:26;35.05;;;32.85;;
56285;SDS011;42191;47.562;9.686;2023-04-12T07:56:56;37.42;;;35.13;;
56285;SDS011;42191;47.562;9.686;2023-04-12T07:59:23;37.75;;;35.45;;
56285;SDS011;42191;47.562;9.686;2023-04-12T08:01:50;36.65;;;34.25;;
56285;SDS011;42191;47.562;9.686;2023-04-12T08:04:16;36.22;;;33.85;;
56285;SDS011;42191;47.562;9.686;2023-04-12T08:06:42;33.97;;;31.90;;
56285;SDS011;42191;47.562;9.686;2023-04-12T08:09:08;35.08;;;32.88;;
56285;SDS011;42191;47.562;9.686;2023-04-12T08:11:34;33.45;;;31.45;;
56285;SDS011;42191;47.562;9.686;2023-04-12T08:14:00;35.05;;;32.85;;
56285;SDS011;42191;47.562;9.686;2023-04-12T08:16:26;34.47;;;32.42;;
56285;SDS011;42191;47.562;9.686;2023-04-12T08:18:53;35.88;;;33.67;;
56285;SDS011;42191;47.562;9.686;2023-04-12T08:21:20;34.92;;;32.83;;
56285;SDS011;42191;47.562;9.686;2023-04-12T08:23:47;34.28;;;32.20;;
56285;SDS011;42191;47.562;9.686;2023-04-12T08:26:15;35.33;;;33.17;;
56285;SDS011;42191;47.562;9.686;2023-04-12T08:28:41;33.70;;;31.63;;
56285;SDS011;42191;47.562;9.686;2023-04-12T08:31:07;35.13;;;32.90;;
56285;SDS011;42191;47.562;9.686;2023-04-12T08:33:33;34.30;;;32.20;;
56285;SDS011;42191;47.562;9.686;2023-04-12T08:35:59;34.10;;;31.90;;
56285;SDS011;42191;47.562;9.686;2023-04-12T08:38:25;37.10;;;34.80;;
56285;SDS011;42191;47.562;9.686;2023-04-12T08:40:52;34.22;;;32.22;;
56285;SDS011;42191;47.562;9.686;2023-04-12T08:43:18;33.70;;;31.60;;
56285;SDS011;42191;47.562;9.686;2023-04-12T08:45:46;34.45;;;32.22;;
56285;SDS011;42191;47.562;9.686;2023-04-12T08:48:13;37.50;;;34.65;;
56285;SDS011;42191;47.562;9.686;2023-04-12T08:50:42;34.53;;;32.30;;
56285;SDS011;42191;47.562;9.686;2023-04-12T08:53:10;35.03;;;31.45;;
56285;SDS011;42191;47.562;9.686;2023-04-12T08:55:36;34.88;;;32.78;;
56285;SDS011;42191;47.562;9.686;2023-04-12T08:58:02;34.05;;;31.85;;
56285;SDS011;42191;47.562;9.686;2023-04-12T09:03:00;35.65;;;33.45;;
56285;SDS011;42191;47.562;9.686;2023-04-12T09:05:27;34.60;;;32.40;;
56285;SDS011;42191;47.562;9.686;2023-04-12T09:07:54;33.33;;;31.33;;
56285;SDS011;42191;47.562;9.686;2023-04-12T09:10:30;34.10;;;32.00;;
56285;SDS011;42191;47.562;9.686;2023-04-12T09:13:01;33.13;;;31.17;;
56285;SDS011;42191;47.562;9.686;2023-04-12T09:15:28;33.45;;;31.45;;
56285;SDS011;42191;47.562;9.686;2023-04-12T09:18:05;34.53;;;32.53;;
56285;SDS011;42191;47.562;9.686;2023-04-12T09:20:35;34.35;;;32.15;;
56285;SDS011;42191;47.562;9.686;2023-04-12T09:23:21;32.75;;;30.75;;
56285;SDS011;42191;47.562;9.686;2023-04-12T09:25:50;33.15;;;31.15;;
56285;SDS011;42191;47.562;9.686;2023-04-12T09:28:26;34.28;;;32.20;;
56285;SDS011;42191;47.562;9.686;2023-04-12T09:30:54;31.95;;;30.05;;
56285;SDS011;42191;47.562;9.686;2023-04-12T09:33:38;32.25;;;30.35;;
56285;SDS011;42191;47.562;9.686;2023-04-12T09:36:05;33.25;;;31.05;;
56285;SDS011;42191;47.562;9.686;2023-04-12T09:38:37;31.67;;;29.67;;
56285;SDS011;42191;47.562;9.686;2023-04-12T09:41:18;31.80;;;29.90;;
56285;SDS011;42191;47.562;9.686;2023-04-12T09:43:46;32.13;;;30.13;;
56285;SDS011;42191;47.562;9.686;2023-04-12T09:46:12;33.38;;;31.30;;
56285;SDS011;42191;47.562;9.686;2023-04-12T09:48:40;31.50;;;29.60;;
56285;SDS011;42191;47.562;9.686;2023-04-12T09:54:01;31.33;;;29.50;;
56285;SDS011;42191;47.562;9.686;2023-04-12T09:56:29;31.05;;;29.05;;
56285;SDS011;42191;47.562;9.686;2023-04-12T09:59:00;31.17;;;29.33;;
56285;SDS011;42191;47.562;9.686;2023-04-12T10:01:33;31.63;;;29.73;;
56285;SDS011;42191;47.562;9.686;2023-04-12T10:04:01;30.67;;;28.88;;
56285;SDS011;42191;47.562;9.686;2023-04-12T10:06:27;31.83;;;29.92;;
56285;SDS011;42191;47.562;9.686;2023-04-12T10:08:54;31.23;;;29.38;;
56285;SDS011;42191;47.562;9.686;2023-04-12T10:11:20;32.58;;;30.67;;
56285;SDS011;42191;47.562;9.686;2023-04-12T10:13:47;31.63;;;29.73;;
56285;SDS011;42191;47.562;9.686;2023-04-12T10:16:15;31.52;;;29.65;;
56285;SDS011;42191;47.562;9.686;2023-04-12T10:18:44;31.30;;;29.42;;
56285;SDS011;42191;47.562;9.686;2023-04-12T10:21:11;32.10;;;30.20;;
56285;SDS011;42191;47.562;9.686;2023-04-12T10:23:37;30.83;;;29.00;;
56285;SDS011;42191;47.562;9.686;2023-04-12T10:26:04;31.70;;;29.73;;
56285;SDS011;42191;47.562;9.686;2023-04-12T10:28:30;31.95;;;30.05;;
56285;SDS011;42191;47.562;9.686;2023-04-12T10:30:56;28.58;;;26.88;;
56285;SDS011;42191;47.562;9.686;2023-04-12T10:33:26;29.70;;;27.98;;
56285;SDS011;42191;47.562;9.686;2023-04-12T10:35:58;30.10;;;28.30;;
56285;SDS011;42191;47.562;9.686;2023-04-12T10:38:27;30.60;;;28.70;;
56285;SDS011;42191;47.562;9.686;2023-04-12T10:41:17;31.10;;;29.27;;
56285;SDS011;42191;47.562;9.686;2023-04-12T10:43:44;31.20;;;29.30;;
56285;SDS011;42191;47.562;9.686;2023-04-12T10:49:09;30.73;;;28.85;;
56285;SDS011;42191;47.562;9.686;2023-04-12T10:51:39;27.77;;;26.13;;
56285;SDS011;42191;47.562;9.686;2023-04-12T10:56:50;30.67;;;28.58;;
56285;SDS011;42191;47.562;9.686;2023-04-12T10:59:17;29.33;;;27.63;;
56285;SDS011;42191;47.562;9.686;2023-04-12T11:05:02;32.00;;;30.10;;
56285;SDS011;42191;47.562;9.686;2023-04-12T11:07:39;30.90;;;29.05;;
56285;SDS011;42191;47.562;9.686;2023-04-12T11:10:13;31.77;;;29.88;;
56285;SDS011;42191;47.562;9.686;2023-04-12T11:12:40;31.52;;;29.65;;
56285;SDS011;42191;47.562;9.686;2023-04-12T11:15:33;31.13;;;29.23;;
56285;SDS011;42191;47.562;9.686;2023-04-12T11:17:59;32.38;;;30.35;;
56285;SDS011;42191;47.562;9.686;2023-04-12T11:20:29;32.05;;;30.15;;
56285;SDS011;42191;47.562;9.686;2023-04-12T11:22:57;31.48;;;29.58;;
56285;SDS011;42191;47.562;9.686;2023-04-12T11:25:24;30.65;;;28.83;;
56285;SDS011;42191;47.562;9.686;2023-04-12T11:27:51;31.50;;;29.42;;
56285;SDS011;42191;47.562;9.686;2023-04-12T11:30:19;29.85;;;28.05;;
56285;SDS011;42191;47.562;9.686;2023-04-12T11:32:45;31.83;;;29.83;;
56285;SDS011;42191;47.562;9.686;2023-04-12T11:35:13;30.88;;;29.08;;
56285;SDS011;42191;47.562;9.686;2023-04-12T11:37:40;31.42;;;29.42;;
56285;SDS011;42191;47.562;9.686;2023-04-12T11:40:07;32.10;;;30.10;;
56285;SDS011;42191;47.562;9.686;2023-04-12T11:42:34;31.20;;;29.25;;
56285;SDS011;42191;47.562;9.686;2023-04-12T11:45:03;29.52;;;27.73;;
56285;SDS011;42191;47.562;9.686;2023-04-12T11:47:29;30.63;;;28.73;;
56285;SDS011;42191;47.562;9.686;2023-04-12T11:49:56;31.48;;;29.38;;
56285;SDS011;42191;47.562;9.686;2023-04-12T11:52:29;30.73;;;28.83;;
56285;SDS011;42191;47.562;9.686;2023-04-12T11:57:24;31.08;;;29.10;;
56285;SDS011;42191;47.562;9.686;2023-04-12T11:59:52;32.75;;;30.42;;
56285;SDS011;42191;47.562;9.686;2023-04-12T12:02:22;32.95;;;30.92;;
56285;SDS011;42191;47.562;9.686;2023-04-12T12:04:49;31.85;;;29.95;;
56285;SDS011;42191;47.562;9.686;2023-04-12T12:07:16;32.63;;;30.52;;
56285;SDS011;42191;47.562;9.686;2023-04-12T12:09:44;34.00;;;31.80;;
56285;SDS011;42191;47.562;9.686;2023-04-12T12:12:11;33.67;;;31.55;;
56285;SDS011;42191;47.562;9.686;2023-04-12T12:14:38;32.03;;;29.98;;
56285;SDS011;42191;47.562;9.686;2023-04-12T12:17:09;33.20;;;30.88;;
56285;SDS011;42191;47.562;9.686;2023-04-12T12:19:37;33.85;;;31.33;;
56285;SDS011;42191;47.562;9.686;2023-04-12T12:22:18;32.75;;;30.65;;
56285;SDS011;42191;47.562;9.686;2023-04-12T12:24:49;31.52;;;29.50;;
56285;SDS011;42191;47.562;9.686;2023-04-12T12:27:20;32.72;;;30.67;;
56285;SDS011;42191;47.562;9.686;2023-04-12T12:30:12;33.85;;;31.73;;
56285;SDS011;42191;47.562;9.686;2023-04-12T12:32:41;32.13;;;30.02;;
56285;SDS011;42191;47.562;9.686;2023-04-12T12:35:09;33.42;;;31.13;;
56285;SDS011;42191;47.562;9.686;2023-04-12T12:37:36;33.85;;;31.65;;
56285;SDS011;42191;47.562;9.686;2023-04-12T12:40:12;33.75;;;31.63;;
56285;SDS011;42191;47.562;9.686;2023-04-12T12:42:43;32.15;;;30.15;;
56285;SDS011;42191;47.562;9.686;2023-04-12T12:45:17;33.03;;;31.02;;
56285;SDS011;42191;47.562;9.686;2023-04-12T12:47:49;34.17;;;31.95;;
56285;SDS011;42191;47.562;9.686;2023-04-12T12:50:17;33.83;;;31.77;;
56285;SDS011;42191;47.562;9.686;2023-04-12T12:52:44;33.47;;;31.35;;
56285;SDS011;42191;47.562;9.686;2023-04-12T12:55:11;32.92;;;30.92;;
56285;SDS011;42191;47.562;9.686;2023-04-12T12:57:38;33.17;;;31.02;;
56285;SDS011;42191;47.562;9.686;2023-04-12T13:00:06;32.53;;;30.52;;
56285;SDS011;42191;47.562;9.686;2023-04-12T13:02:34;32.83;;;30.83;;
56285;SDS011;42191;47.562;9.686;2023-04-12T13:05:01;32.80;;;30.70;;
56285;SDS011;42191;47.562;9.686;2023-04-12T13:07:28;31.58;;;29.58;;
56285;SDS011;42191;47.562;9.686;2023-04-12T13:09:54;31.80;;;29.67;;
56285;SDS011;42191;47.562;9.686;2023-04-12T13:12:20;34.35;;;32.35;;
56285;SDS011;42191;47.562;9.686;2023-04-12T13:14:47;32.65;;;30.63;;
56285;SDS011;42191;47.562;9.686;2023-04-12T13:17:13;34.20;;;31.92;;
56285;SDS011;42191;47.562;9.686;2023-04-12T13:19:39;32.45;;;30.52;;
56285;SDS011;42191;47.562;9.686;2023-04-12T13:22:06;33.55;;;31.45;;
56285;SDS011;42191;47.562;9.686;2023-04-12T13:24:33;33.78;;;31.55;;
56285;SDS011;42191;47.562;9.686;2023-04-12T13:26:59;32.78;;;30.73;;
56285;SDS011;42191;47.562;9.686;2023-04-12T13:29:26;32.67;;;30.67;;
56285;SDS011;42191;47.562;9.686;2023-04-12T13:31:52;32.00;;;30.00;;
56285;SDS011;42191;47.562;9.686;2023-04-12T13:34:19;32.78;;;30.85;;
56285;SDS011;42191;47.562;9.686;2023-04-12T13:36:45;32.20;;;30.08;;
56285;SDS011;42191;47.562;9.686;2023-04-12T13:39:13;32.25;;;30.25;;
56285;SDS011;42191;47.562;9.686;2023-04-12T13:41:39;31.52;;;29.52;;
56285;SDS011;42191;47.562;9.686;2023-04-12T13:44:05;32.45;;;30.55;;
56285;SDS011;42191;47.562;9.686;2023-04-12T13:46:31;30.58;;;28.70;;
56285;SDS011;42191;47.562;9.686;2023-04-12T13:48:57;31.52;;;29.52;;
56285;SDS011;42191;47.562;9.686;2023-04-12T13:51:23;31.88;;;29.90;;
56285;SDS011;42191;47.562;9.686;2023-04-12T13:53:50;31.80;;;29.80;;
56285;SDS011;42191;47.562;9.686;2023-04-12T13:56:17;30.52;;;28.42;;
56285;SDS011;42191;47.562;9.686;2023-04-12T13:58:43;32.63;;;30.67;;
56285;SDS011;42191;47.562;9.686;2023-04-12T14:01:09;33.70;;;31.50;;
56285;SDS011;42191;47.562;9.686;2023-04-12T14:03:37;32.55;;;30.55;;
56285;SDS011;42191;47.562;9.686;2023-04-12T14:06:04;33.50;;;31.50;;
56285;SDS011;42191;47.562;9.686;2023-04-12T14:08:31;31.92;;;29.98;;
56285;SDS011;42191;47.562;9.686;2023-04-12T14:10:57;33.97;;;31.67;;
56285;SDS011;42191;47.562;9.686;2023-04-12T14:13:25;31.65;;;29.75;;
56285;SDS011;42191;47.562;9.686;2023-04-12T14:15:51;30.58;;;28.70;;
56285;SDS011;42191;47.562;9.686;2023-04-12T14:18:19;33.38;;;31.27;;
56285;SDS011;42191;47.562;9.686;2023-04-12T14:20:49;31.90;;;29.90;;
56285;SDS011;42191;47.562;9.686;2023-04-12T14:23:21;33.33;;;31.33;;
56285;SDS011;42191;47.562;9.686;2023-04-12T14:25:51;34.88;;;32.72;;
56285;SDS011;42191;47.562;9.686;2023-04-12T14:28:18;32.05;;;30.15;;
56285;SDS011;42191;47.562;9.686;2023-04-12T14:30:45;31.95;;;30.05;;
56285;SDS011;42191;47.562;9.686;2023-04-12T14:33:14;30.67;;;28.58;;
56285;SDS011;42191;47.562;9.686;2023-04-12T14:35:41;31.63;;;29.73;;
56285;SDS011;42191;47.562;9.686;2023-04-12T14:38:07;32.58;;;30.58;;
56285;SDS011;42191;47.562;9.686;2023-04-12T14:40:34;33.67;;;31.33;;
56285;SDS011;42191;47.562;9.686;2023-04-12T14:43:00;32.75;;;30.75;;
56285;SDS011;42191;47.562;9.686;2023-04-12T14:45:26;32.92;;;30.77;;
56285;SDS011;42191;47.562;9.686;2023-04-12T14:47:53;32.58;;;30.55;;